Time;durP1;ratioP1;P1;durP2;ratioP2;P2;SDS_P1;SDS_P2;PMS_P1;PMS_P2;Temp;Humidity;BMP_temperature;BMP_pressure;BME280_temperature;BME280_humidity;BME280_pressure;Samples;Min_cycle;Max_cycle;Signal;HPM_P1;HPM_P2
2022/04/07 00:00:44;;;;;;;2.88;2.60;;;10.80;87.40;;;;;;5052279;28;20045;-31
2022/04/07 00:03:09;;;;;;;2.95;2.40;;;10.80;87.50;;;;;;5052539;28;20444;-36
2022/04/07 00:05:35;;;;;;;2.42;2.17;;;10.80;87.50;;;;;;5052447;28;20060;-31
2022/04/07 00:08:01;;;;;;;2.85;2.63;;;10.70;87.60;;;;;;5052361;28;20454;-31
2022/04/07 00:10:26;;;;;;;3.63;2.55;;;10.70;87.70;;;;;;5052346;28;20385;-32
2022/04/07 00:12:52;;;;;;;4.55;2.67;;;10.70;87.80;;;;;;5052464;28;20108;-31
2022/04/07 00:15:17;;;;;;;3.20;2.20;;;10.70;87.90;;;;;;5052288;28;20029;-31
2022/04/07 00:17:43;;;;;;;3.17;2.60;;;10.70;87.90;;;;;;5052350;28;20033;-30
2022/04/07 00:20:09;;;;;;;4.03;2.80;;;10.70;88.00;;;;;;5052312;28;20025;-33
2022/04/07 00:22:34;;;;;;;3.95;2.63;;;10.60;87.90;;;;;;5052300;28;20033;-31
2022/04/07 00:25:00;;;;;;;2.80;2.38;;;10.60;87.90;;;;;;5054737;28;20142;-34
2022/04/07 00:27:26;;;;;;;4.80;2.60;;;10.70;88.00;;;;;;5056120;28;20029;-31
2022/04/07 00:29:51;;;;;;;4.22;2.67;;;10.60;87.90;;;;;;5056151;28;20036;-30
2022/04/07 00:32:17;;;;;;;5.05;2.58;;;10.70;88.00;;;;;;5055980;28;20028;-30
2022/04/07 00:34:46;;;;;;;3.10;2.80;;;10.60;88.00;;;;;;5056005;28;20017;-31
2022/04/07 00:37:12;;;;;;;3.85;2.55;;;10.60;88.10;;;;;;5056339;28;20078;-30
2022/04/07 00:39:37;;;;;;;3.25;2.92;;;10.60;88.10;;;;;;5055959;28;20033;-30
2022/04/07 00:42:04;;;;;;;2.90;2.60;;;10.60;88.20;;;;;;5056004;28;20055;-31
2022/04/07 00:44:29;;;;;;;4.70;2.92;;;10.60;88.20;;;;;;5054648;28;20107;-32
2022/04/07 00:46:55;;;;;;;3.45;2.50;;;10.60;88.20;;;;;;5055799;28;20028;-33
2022/04/07 00:49:21;;;;;;;4.18;2.60;;;10.60;88.20;;;;;;5055811;28;20108;-35
2022/04/07 00:51:49;;;;;;;5.28;2.50;;;10.60;88.20;;;;;;5055677;28;20025;-31
2022/04/07 00:54:16;;;;;;;2.60;2.40;;;10.60;88.30;;;;;;5055955;28;20503;-30
2022/04/07 00:56:43;;;;;;;4.30;2.10;;;10.60;88.30;;;;;;5055624;28;20366;-30
2022/04/07 00:59:16;;;;;;;3.15;2.33;;;10.60;88.30;;;;;;5055464;28;20049;-31
2022/04/07 01:01:44;;;;;;;4.95;2.30;;;10.60;88.20;;;;;;5055577;28;20025;-30
2022/04/07 01:04:09;;;;;;;3.20;2.22;;;10.60;88.10;;;;;;5055515;28;20056;-30
2022/04/07 01:06:35;;;;;;;5.45;2.33;;;10.60;88.10;;;;;;5055404;28;20087;-30
2022/04/07 01:09:01;;;;;;;4.70;1.98;;;10.60;88.00;;;;;;5055448;28;20103;-31
2022/04/07 01:11:29;;;;;;;5.00;2.40;;;10.60;87.90;;;;;;5055322;28;20039;-30
2022/04/07 01:13:54;;;;;;;6.75;2.08;;;10.60;87.80;;;;;;5054082;28;20021;-30
2022/04/07 01:16:26;;;;;;;2.80;1.90;;;10.60;87.60;;;;;;5055285;28;20055;-31
2022/04/07 01:18:52;;;;;;;4.85;1.70;;;10.60;87.60;;;;;;5055448;28;20025;-30
2022/04/07 01:21:18;;;;;;;5.30;1.73;;;10.60;87.50;;;;;;5055087;28;20508;-31
2022/04/07 01:24:03;;;;;;;4.05;1.60;;;10.60;87.50;;;;;;5055119;28;20033;-35
2022/04/07 01:26:38;;;;;;;3.35;1.52;;;10.50;87.30;;;;;;5054944;28;20036;-31
2022/04/07 01:29:14;;;;;;;4.07;1.65;;;10.50;87.30;;;;;;5055075;28;20025;-31
2022/04/07 01:31:41;;;;;;;4.28;1.75;;;10.50;87.40;;;;;;5054939;28;20096;-33
2022/04/07 01:34:14;;;;;;;4.47;1.50;;;10.40;87.60;;;;;;5054873;28;20493;-31
2022/04/07 01:36:46;;;;;;;3.45;1.60;;;10.40;87.90;;;;;;5054587;28;20036;-32
2022/04/07 01:39:13;;;;;;;3.95;1.80;;;10.30;88.20;;;;;;5054813;28;20025;-34
2022/04/07 01:41:41;;;;;;;3.33;1.48;;;10.30;88.50;;;;;;5054789;28;20031;-33
2022/04/07 01:44:09;;;;;;;5.45;1.70;;;10.20;88.70;;;;;;5053490;28;20052;-30
2022/04/07 01:46:36;;;;;;;6.03;1.92;;;10.20;89.00;;;;;;5054588;28;20033;-31
2022/04/07 01:49:02;;;;;;;6.43;1.65;;;10.10;89.10;;;;;;5054740;28;20108;-31
2022/04/07 01:51:29;;;;;;;2.97;1.40;;;10.10;89.20;;;;;;5054923;28;20385;-31
2022/04/07 01:53:56;;;;;;;3.95;1.80;;;10.10;89.30;;;;;;5053392;28;20021;-31
2022/04/07 01:56:22;;;;;;;3.65;1.67;;;10.10;89.30;;;;;;5054936;28;20068;-33
2022/04/07 01:58:49;;;;;;;3.83;1.70;;;10.10;89.30;;;;;;5054314;28;20071;-33
2022/04/07 02:01:15;;;;;;;3.50;1.50;;;10.10;89.40;;;;;;5054527;28;20111;-32
2022/04/07 02:03:40;;;;;;;4.28;1.70;;;10.10;89.30;;;;;;5053082;28;20021;-32
2022/04/07 02:06:15;;;;;;;4.45;1.60;;;10.10;89.30;;;;;;5054296;28;20037;-31
2022/04/07 02:08:42;;;;;;;4.78;1.65;;;10.10;89.40;;;;;;5054305;28;20032;-33
2022/04/07 02:11:10;;;;;;;6.68;2.28;;;10.10;89.40;;;;;;5054284;28;20029;-31
2022/04/07 02:13:38;;;;;;;4.15;1.67;;;10.10;89.40;;;;;;5054362;28;20040;-31
2022/04/07 02:16:04;;;;;;;6.85;2.50;;;10.10;89.40;;;;;;5054167;28;20025;-31
2022/04/07 02:18:30;;;;;;;6.28;2.13;;;10.10;89.40;;;;;;5054136;28;20117;-31
2022/04/07 02:20:55;;;;;;;4.10;1.90;;;10.10;89.50;;;;;;5054320;28;20060;-35
2022/04/07 02:23:22;;;;;;;4.57;1.95;;;10.10;89.50;;;;;;5052833;28;20031;-32
2022/04/07 02:25:47;;;;;;;4.18;1.75;;;10.10;89.50;;;;;;5054217;28;20473;-31
2022/04/07 02:28:13;;;;;;;5.20;1.83;;;10.10;89.70;;;;;;5052995;28;20029;-30
2022/04/07 02:30:39;;;;;;;3.72;1.92;;;10.10;89.80;;;;;;5053916;28;20067;-37
2022/04/07 02:33:04;;;;;;;3.38;1.80;;;10.00;89.90;;;;;;5053899;28;20029;-34
2022/04/07 02:35:30;;;;;;;5.00;2.10;;;10.00;90.00;;;;;;5053815;28;20106;-31
2022/04/07 02:37:59;;;;;;;5.55;1.92;;;10.00;90.00;;;;;;5053918;28;20080;-32
2022/04/07 02:40:24;;;;;;;5.43;2.08;;;10.00;90.00;;;;;;5053875;28;20421;-33
2022/04/07 02:42:50;;;;;;;6.75;2.40;;;10.00;90.30;;;;;;5053659;28;20081;-30
2022/04/07 02:45:15;;;;;;;6.07;2.00;;;10.00;90.10;;;;;;5053653;28;20040;-31
2022/04/07 02:47:41;;;;;;;5.05;2.30;;;10.00;90.10;;;;;;5052849;28;20493;-35
2022/04/07 02:50:07;;;;;;;4.93;2.40;;;10.00;90.10;;;;;;5053850;28;20516;-33
2022/04/07 02:52:33;;;;;;;4.82;1.85;;;10.00;90.10;;;;;;5053551;28;20056;-30
2022/04/07 02:54:59;;;;;;;7.38;2.40;;;10.00;90.10;;;;;;5053549;28;20060;-31
2022/04/07 02:57:29;;;;;;;3.67;2.17;;;10.00;90.20;;;;;;5053592;28;20400;-31
2022/04/07 02:59:55;;;;;;;6.90;2.20;;;10.00;90.20;;;;;;5053356;28;20110;-31
2022/04/07 03:02:20;;;;;;;6.50;2.00;;;9.90;90.20;;;;;;5053291;28;20124;-33
2022/04/07 03:04:46;;;;;;;5.25;2.00;;;9.90;90.30;;;;;;5053445;28;20563;-30
2022/04/07 03:07:11;;;;;;;6.70;2.60;;;9.90;90.30;;;;;;5053209;28;20434;-30
2022/04/07 03:09:37;;;;;;;6.50;2.42;;;9.90;90.30;;;;;;5053142;28;20126;-30
2022/04/07 03:12:03;;;;;;;4.88;2.85;;;9.80;90.30;;;;;;5053497;28;20096;-30
2022/04/07 03:14:28;;;;;;;10.77;2.75;;;9.80;90.30;;;;;;5051759;28;20066;-32
2022/04/07 03:16:54;;;;;;;8.73;2.40;;;9.80;90.30;;;;;;5053611;28;20041;-30
2022/04/07 03:19:20;;;;;;;9.10;2.53;;;9.80;90.30;;;;;;5053392;28;20021;-29
2022/04/07 03:21:46;;;;;;;9.30;2.90;;;9.80;90.20;;;;;;5053224;28;20047;-30
2022/04/07 03:24:12;;;;;;;4.57;2.10;;;9.90;90.20;;;;;;5053008;28;20489;-33
2022/04/07 03:26:38;;;;;;;6.50;2.22;;;9.90;90.20;;;;;;5052877;28;20381;-31
2022/04/07 03:29:04;;;;;;;7.82;2.30;;;9.90;90.10;;;;;;5052985;28;20059;-30
2022/04/07 03:31:30;;;;;;;5.75;2.17;;;9.90;90.10;;;;;;5052941;28;20036;-29
2022/04/07 03:33:55;;;;;;;9.32;2.22;;;9.90;90.10;;;;;;5052794;28;20124;-31
2022/04/07 03:36:21;;;;;;;5.43;2.15;;;9.90;90.00;;;;;;5052866;28;20508;-30
2022/04/07 03:38:48;;;;;;;7.15;2.03;;;10.00;90.00;;;;;;5052777;28;20103;-31
2022/04/07 03:41:14;;;;;;;7.28;2.13;;;10.00;90.00;;;;;;5052770;28;20392;-32
2022/04/07 03:43:42;;;;;;;8.63;2.72;;;10.00;89.90;;;;;;5052733;28;20025;-30
2022/04/07 03:46:08;;;;;;;8.35;2.58;;;10.00;89.60;;;;;;5052628;28;20493;-30
2022/04/07 03:48:34;;;;;;;8.90;2.38;;;10.00;89.30;;;;;;5052625;28;20017;-35
2022/04/07 03:50:59;;;;;;;7.93;2.15;;;10.00;89.30;;;;;;5052648;28;20535;-31
2022/04/07 03:53:25;;;;;;;8.57;2.00;;;10.00;89.30;;;;;;5051445;28;20048;-32
2022/04/07 03:55:50;;;;;;;9.80;2.70;;;10.00;89.30;;;;;;5053168;28;20079;-29
2022/04/07 03:58:16;;;;;;;7.45;2.03;;;10.00;89.40;;;;;;5054135;28;20028;-29
2022/04/07 04:00:42;;;;;;;8.65;2.22;;;10.00;89.50;;;;;;5056565;28;20489;-33
2022/04/07 04:03:07;;;;;;;7.43;2.30;;;10.00;89.60;;;;;;5056859;28;20036;-30
2022/04/07 04:05:33;;;;;;;6.15;2.30;;;10.00;89.80;;;;;;5055400;28;20021;-29
2022/04/07 04:07:59;;;;;;;5.97;2.47;;;9.90;89.80;;;;;;5056698;28;20104;-30
2022/04/07 04:10:25;;;;;;;6.15;2.38;;;9.90;89.90;;;;;;5056977;28;20021;-30
2022/04/07 04:12:51;;;;;;;4.60;2.00;;;9.90;90.00;;;;;;5056717;28;20025;-30
2022/04/07 04:15:17;;;;;;;8.90;2.20;;;9.90;90.00;;;;;;5056802;28;20021;-29
2022/04/07 04:17:42;;;;;;;5.93;2.05;;;9.90;90.00;;;;;;5056473;28;20035;-31
2022/04/07 04:20:08;;;;;;;8.10;2.08;;;9.90;90.00;;;;;;5055120;28;20028;-32
2022/04/07 04:22:34;;;;;;;10.80;2.30;;;9.90;90.00;;;;;;5056340;28;20043;-30
2022/04/07 04:25:00;;;;;;;6.47;1.80;;;9.90;89.90;;;;;;5056349;28;20029;-30
2022/04/07 04:27:28;;;;;;;9.23;1.95;;;9.90;89.80;;;;;;5056445;28;20025;-29
2022/04/07 04:29:54;;;;;;;11.10;2.30;;;9.90;89.70;;;;;;5056516;28;20472;-36
2022/04/07 04:32:19;;;;;;;4.20;1.77;;;10.00;89.70;;;;;;5056428;28;20028;-29
2022/04/07 04:34:45;;;;;;;4.50;1.75;;;10.00;89.60;;;;;;5056261;28;20459;-34
2022/04/07 04:37:10;;;;;;;6.47;1.90;;;10.00;89.50;;;;;;5056249;28;20036;-29
2022/04/07 04:39:37;;;;;;;7.95;2.25;;;10.00;89.40;;;;;;5056137;28;20481;-29
2022/04/07 04:42:04;;;;;;;5.45;1.60;;;10.00;89.10;;;;;;5056419;28;20163;-30
2022/04/07 04:44:30;;;;;;;7.45;1.92;;;10.00;89.10;;;;;;5056294;28;20025;-33
2022/04/07 04:46:55;;;;;;;4.78;1.60;;;10.00;89.00;;;;;;5056082;28;20367;-30
2022/04/07 04:49:21;;;;;;;7.32;2.47;;;10.00;89.00;;;;;;5056090;28;20104;-30
2022/04/07 04:51:47;;;;;;;7.00;1.90;;;10.00;88.90;;;;;;5055914;28;20091;-32
2022/04/07 04:54:13;;;;;;;4.38;1.70;;;10.00;88.80;;;;;;5055846;28;20025;-32
2022/04/07 04:56:40;;;;;;;7.32;2.10;;;10.00;88.70;;;;;;5055774;28;20066;-30
2022/04/07 04:59:05;;;;;;;5.97;2.45;;;10.10;88.60;;;;;;5055747;28;20542;-32
2022/04/07 05:01:31;;;;;;;5.00;1.80;;;10.10;88.30;;;;;;5055809;28;20025;-31
2022/04/07 05:03:57;;;;;;;3.58;1.73;;;10.10;88.20;;;;;;5055679;28;20545;-31
2022/04/07 05:06:22;;;;;;;4.57;2.00;;;10.10;88.10;;;;;;5055551;28;20033;-36
2022/04/07 05:08:48;;;;;;;5.25;2.00;;;10.20;88.00;;;;;;5055548;28;20014;-31
2022/04/07 05:11:14;;;;;;;5.28;1.80;;;10.20;88.30;;;;;;5055068;28;20515;-30
2022/04/07 05:13:39;;;;;;;7.00;1.80;;;10.20;87.50;;;;;;5055336;28;20017;-34
2022/04/07 05:16:07;;;;;;;5.30;1.98;;;10.20;87.40;;;;;;5055397;28;20444;-30
2022/04/07 05:18:33;;;;;;;6.15;2.08;;;10.20;87.40;;;;;;5055252;28;20100;-36
2022/04/07 05:20:59;;;;;;;8.38;1.80;;;10.20;87.40;;;;;;5055378;28;20036;-31
2022/04/07 05:23:25;;;;;;;4.30;1.52;;;10.20;87.20;;;;;;5055245;28;20021;-32
2022/04/07 05:25:50;;;;;;;4.93;1.52;;;10.20;87.10;;;;;;5055096;28;20147;-36
2022/04/07 05:28:16;;;;;;;6.18;1.52;;;10.20;87.10;;;;;;5055332;28;20036;-32
2022/04/07 05:30:41;;;;;;;3.13;1.33;;;10.20;87.00;;;;;;5055112;28;20364;-32
2022/04/07 05:33:07;;;;;;;6.15;1.63;;;10.20;87.00;;;;;;5054999;28;20028;-30
2022/04/07 05:35:32;;;;;;;4.53;1.30;;;10.20;86.90;;;;;;5055136;28;20029;-32
2022/04/07 05:37:59;;;;;;;5.13;1.48;;;10.20;86.80;;;;;;5054865;28;20052;-30
2022/04/07 05:40:26;;;;;;;3.60;1.60;;;10.20;86.80;;;;;;5055119;28;20021;-31
2022/04/07 05:42:52;;;;;;;4.03;1.50;;;10.20;86.90;;;;;;5054928;28;20063;-30
2022/04/07 05:45:18;;;;;;;3.25;1.67;;;10.30;86.90;;;;;;5054816;28;20052;-31
2022/04/07 05:47:43;;;;;;;4.57;1.73;;;10.30;87.00;;;;;;5054620;28;20021;-30
2022/04/07 05:50:11;;;;;;;3.58;1.20;;;10.30;87.00;;;;;;5054430;28;20036;-46
2022/04/07 05:52:37;;;;;;;2.33;1.30;;;10.30;87.00;;;;;;5054648;28;20021;-45
2022/04/07 05:55:03;;;;;;;4.75;1.33;;;10.20;87.00;;;;;;5054641;28;20020;-45
2022/04/07 05:57:30;;;;;;;1.60;0.90;;;10.30;87.10;;;;;;5054497;28;20055;-45
2022/04/07 06:00:04;;;;;;;1.77;1.02;;;10.30;87.30;;;;;;5053218;28;20405;-44
2022/04/07 06:02:30;;;;;;;3.70;1.08;;;10.30;87.40;;;;;;5054474;28;20122;-45
2022/04/07 06:04:55;;;;;;;3.45;1.00;;;10.30;87.50;;;;;;5054437;28;20052;-45
2022/04/07 06:07:22;;;;;;;3.70;1.13;;;10.30;87.50;;;;;;5052949;28;20024;-45
2022/04/07 06:09:48;;;;;;;2.58;1.20;;;10.30;87.60;;;;;;5052967;28;20067;-44
2022/04/07 06:12:13;;;;;;;2.40;1.45;;;10.30;87.80;;;;;;5054266;28;20025;-45
2022/04/07 06:14:39;;;;;;;2.53;1.10;;;10.30;87.80;;;;;;5054199;28;20021;-45
2022/04/07 06:17:05;;;;;;;4.30;1.02;;;10.30;88.00;;;;;;5054325;28;20484;-45
2022/04/07 06:19:30;;;;;;;2.72;0.98;;;10.20;88.00;;;;;;5054153;28;20067;-45
2022/04/07 06:21:56;;;;;;;3.42;1.23;;;10.20;88.10;;;;;;5053191;28;20036;-49
2022/04/07 06:24:21;;;;;;;2.50;1.10;;;10.20;88.40;;;;;;5054412;28;20473;-45
2022/04/07 06:26:49;;;;;;;1.58;1.00;;;10.20;88.50;;;;;;5054027;28;20029;-45
2022/04/07 06:29:15;;;;;;;3.60;1.30;;;10.10;88.60;;;;;;5054413;28;20052;-45
2022/04/07 06:31:40;;;;;;;4.40;1.63;;;10.10;88.70;;;;;;5054014;28;20024;-45
2022/04/07 06:34:06;;;;;;;2.20;1.05;;;10.20;89.00;;;;;;5053866;28;20508;-45
2022/04/07 06:36:31;;;;;;;3.05;1.25;;;10.10;89.00;;;;;;5054006;28;20025;-46
2022/04/07 06:38:57;;;;;;;3.30;1.30;;;10.10;89.20;;;;;;5053925;28;20036;-46
2022/04/07 06:41:23;;;;;;;3.45;1.50;;;10.10;89.30;;;;;;5053823;28;20032;-45
2022/04/07 06:43:48;;;;;;;2.45;1.40;;;10.00;89.40;;;;;;5053729;28;20025;-45
2022/04/07 06:46:14;;;;;;;2.92;1.23;;;10.00;89.60;;;;;;5053672;28;20025;-45
2022/04/07 06:48:39;;;;;;;2.38;1.50;;;10.00;89.60;;;;;;5053754;28;20028;-45
2022/04/07 06:51:05;;;;;;;6.97;1.98;;;10.10;89.80;;;;;;5053671;28;20021;-45
2022/04/07 06:53:31;;;;;;;2.65;1.60;;;10.00;89.90;;;;;;5053576;28;20053;-44
2022/04/07 06:55:56;;;;;;;2.92;1.88;;;10.00;90.00;;;;;;5053594;28;20438;-44
2022/04/07 06:58:22;;;;;;;4.13;1.98;;;10.00;90.10;;;;;;5053566;28;20402;-44
2022/04/07 07:00:47;;;;;;;2.90;1.58;;;10.00;90.10;;;;;;5053293;28;20052;-44
2022/04/07 07:03:14;;;;;;;5.57;1.83;;;10.00;90.20;;;;;;5053525;28;20112;-44
2022/04/07 07:05:40;;;;;;;2.30;0.90;;;10.00;90.30;;;;;;5053268;28;20086;-44
2022/04/07 07:08:17;;;;;;;0.63;0.50;;;9.90;89.10;;;;;;5053636;28;20021;-43
2022/04/07 07:10:45;;;;;;;1.75;0.40;;;9.40;86.90;;;;;;5053265;28;20020;-44
2022/04/07 07:13:12;;;;;;;3.22;0.50;;;8.70;86.60;;;;;;5053646;28;20100;-45
2022/04/07 07:15:38;;;;;;;1.50;0.55;;;8.10;86.80;;;;;;5053277;28;20028;-44
2022/04/07 07:18:04;;;;;;;1.35;0.57;;;7.60;88.00;;;;;;5051991;28;20025;-45
2022/04/07 07:20:30;;;;;;;1.58;0.47;;;7.30;89.00;;;;;;5053118;28;20556;-42
2022/04/07 07:22:55;;;;;;;1.48;0.50;;;7.10;89.80;;;;;;5053254;28;20025;-44
2022/04/07 07:25:21;;;;;;;1.33;0.50;;;6.90;90.20;;;;;;5053022;28;20366;-45
2022/04/07 07:27:47;;;;;;;2.85;0.60;;;6.90;90.40;;;;;;5052966;28;20029;-44
2022/04/07 07:30:15;;;;;;;1.92;0.60;;;6.80;90.40;;;;;;5053036;28;20025;-44
2022/04/07 07:32:44;;;;;;;2.33;0.63;;;6.70;90.50;;;;;;5051374;28;20013;-43
2022/04/07 07:35:10;;;;;;;1.95;0.70;;;6.70;90.50;;;;;;5053132;28;20017;-44
2022/04/07 07:37:37;;;;;;;2.30;0.80;;;6.70;90.70;;;;;;5051631;28;20436;-44
2022/04/07 07:40:10;;;;;;;1.40;0.60;;;6.80;90.80;;;;;;5052930;28;20086;-44
2022/04/07 07:42:36;;;;;;;3.38;0.80;;;6.80;90.80;;;;;;5053103;28;20032;-43
2022/04/07 07:45:03;;;;;;;1.92;0.70;;;6.80;90.70;;;;;;5052779;28;20358;-44
2022/04/07 07:47:29;;;;;;;3.22;0.70;;;6.80;90.70;;;;;;5052698;28;20025;-44
2022/04/07 07:49:54;;;;;;;2.90;0.93;;;6.90;90.90;;;;;;5052900;28;20055;-44
2022/04/07 07:52:20;;;;;;;3.00;0.90;;;6.80;90.80;;;;;;5053000;28;20048;-44
2022/04/07 07:54:46;;;;;;;2.92;0.88;;;6.80;90.80;;;;;;5052619;28;20032;-44
2022/04/07 07:57:11;;;;;;;4.47;1.08;;;6.80;90.90;;;;;;5052728;28;20079;-44
2022/04/07 07:59:37;;;;;;;2.60;0.90;;;6.80;91.00;;;;;;5051253;28;20128;-44
2022/04/07 08:02:03;;;;;;;4.45;1.20;;;6.80;91.00;;;;;;5052586;28;20032;-46
2022/04/07 08:04:28;;;;;;;5.78;1.48;;;6.70;91.00;;;;;;5052594;28;20078;-44
2022/04/07 08:06:54;;;;;;;7.65;1.42;;;6.70;91.10;;;;;;5051186;28;20032;-44
2022/04/07 08:09:20;;;;;;;3.92;1.15;;;6.70;91.10;;;;;;5052866;28;20020;-44
2022/04/07 08:11:46;;;;;;;3.10;1.30;;;6.70;91.20;;;;;;5052561;28;20055;-41
2022/04/07 08:14:11;;;;;;;4.28;1.08;;;6.70;91.20;;;;;;5052659;28;20025;-44
2022/04/07 08:16:37;;;;;;;3.20;1.10;;;6.70;91.30;;;;;;5052552;28;20480;-43
2022/04/07 08:19:03;;;;;;;2.78;0.80;;;6.70;91.40;;;;;;5052844;28;20026;-43
2022/04/07 08:21:29;;;;;;;3.58;1.00;;;6.70;91.40;;;;;;5052384;28;20021;-44
2022/04/07 08:23:54;;;;;;;1.17;0.60;;;6.80;91.40;;;;;;5051314;28;20025;-44
2022/04/07 08:26:20;;;;;;;1.48;0.90;;;6.80;91.40;;;;;;5052340;28;20021;-42
2022/04/07 08:28:46;;;;;;;2.22;0.80;;;6.90;91.40;;;;;;5052428;28;20108;-42
2022/04/07 08:31:12;;;;;;;2.72;0.80;;;6.90;91.40;;;;;;5052455;28;20018;-43
2022/04/07 08:33:38;;;;;;;2.50;0.85;;;6.90;91.40;;;;;;5052238;28;20066;-44
2022/04/07 08:36:03;;;;;;;3.30;0.90;;;7.00;91.50;;;;;;5052325;28;20477;-44
2022/04/07 08:38:29;;;;;;;3.03;0.80;;;7.10;91.40;;;;;;5050933;28;20037;-42
2022/04/07 08:40:56;;;;;;;2.00;1.00;;;7.20;91.50;;;;;;5052337;28;20036;-44
2022/04/07 08:43:23;;;;;;;2.92;0.70;;;7.40;91.50;;;;;;5052381;28;20048;-42
2022/04/07 08:45:49;;;;;;;2.60;0.85;;;7.60;91.40;;;;;;5053958;28;20025;-43
2022/04/07 08:48:15;;;;;;;2.28;1.00;;;7.70;91.30;;;;;;5056274;28;20025;-43
2022/04/07 08:50:43;;;;;;;2.58;1.15;;;7.80;91.20;;;;;;5055936;28;20045;-44
2022/04/07 08:53:11;;;;;;;4.30;1.15;;;7.90;91.10;;;;;;5054599;28;20025;-44
2022/04/07 08:55:38;;;;;;;2.40;1.00;;;7.90;91.10;;;;;;5055758;28;20025;-44
2022/04/07 08:58:05;;;;;;;4.97;1.60;;;7.90;91.10;;;;;;5056089;28;20029;-43
2022/04/07 09:00:31;;;;;;;2.00;1.05;;;8.00;91.20;;;;;;5055457;28;20537;-43
2022/04/07 09:02:57;;;;;;;3.33;1.50;;;8.00;91.20;;;;;;5055540;28;20017;-43
2022/04/07 09:05:24;;;;;;;2.00;0.95;;;8.20;91.30;;;;;;5055700;28;20025;-44
2022/04/07 09:07:51;;;;;;;2.70;1.30;;;8.30;91.30;;;;;;5055543;28;20409;-43
2022/04/07 09:10:19;;;;;;;2.88;1.20;;;8.40;91.20;;;;;;5037778;28;20033;-47
2022/04/07 09:12:45;;;;;;;2.63;1.10;;;8.50;91.10;;;;;;5055478;28;20502;-43
2022/04/07 09:15:12;;;;;;;3.78;1.20;;;8.60;91.10;;;;;;5055483;28;20100;-43
2022/04/07 09:17:55;;;;;;;2.70;1.20;;;8.60;91.20;;;;;;5055593;28;20061;-43
2022/04/07 09:20:22;;;;;;;3.17;1.35;;;8.70;91.20;;;;;;5055376;28;20028;-43
2022/04/07 09:22:58;;;;;;;1.60;1.10;;;8.90;91.10;;;;;;5055372;28;20118;-44
2022/04/07 09:25:25;;;;;;;3.05;1.30;;;9.00;91.00;;;;;;5055177;28;20013;-42
2022/04/07 09:27:51;;;;;;;3.88;1.00;;;9.10;90.90;;;;;;5055074;28;20031;-43
2022/04/07 09:30:17;;;;;;;3.38;1.20;;;9.20;90.70;;;;;;5055175;28;20048;-43
2022/04/07 09:32:44;;;;;;;3.00;1.20;;;9.20;90.50;;;;;;5054931;28;20048;-45
2022/04/07 09:35:11;;;;;;;4.32;1.52;;;9.20;90.50;;;;;;5053801;28;20075;-44
2022/04/07 09:37:39;;;;;;;2.58;1.60;;;9.30;90.30;;;;;;5054898;28;20025;-44
2022/04/07 09:40:10;;;;;;;3.33;1.08;;;9.30;90.20;;;;;;5053673;28;20025;-43
2022/04/07 09:42:36;;;;;;;4.25;1.73;;;9.30;90.10;;;;;;5055165;28;20029;-44
2022/04/07 09:45:04;;;;;;;6.68;1.58;;;9.40;89.90;;;;;;5054869;28;20044;-44
2022/04/07 09:47:48;;;;;;;5.10;1.33;;;9.40;90.00;;;;;;5054967;28;20048;-43
2022/04/07 09:50:31;;;;;;;4.10;1.40;;;9.50;89.90;;;;;;5054831;28;20021;-44
2022/04/07 09:53:03;;;;;;;5.53;1.80;;;9.60;89.80;;;;;;5054961;28;20013;-31
2022/04/07 09:55:37;;;;;;;3.22;1.33;;;9.70;89.40;;;;;;5053223;28;20017;-30
2022/04/07 09:58:04;;;;;;;4.45;1.40;;;9.70;88.40;;;;;;5054644;28;20510;-32
2022/04/07 10:00:31;;;;;;;5.43;1.70;;;9.80;87.90;;;;;;5054353;28;20048;-31
2022/04/07 10:02:57;;;;;;;7.63;1.52;;;9.80;86.20;;;;;;5054595;28;20021;-37
2022/04/07 10:05:24;;;;;;;5.35;1.48;;;9.80;86.30;;;;;;5053177;28;20109;-34
2022/04/07 10:07:50;;;;;;;4.72;1.50;;;9.80;85.90;;;;;;5054304;28;20384;-31
2022/04/07 10:10:18;;;;;;;6.93;1.42;;;9.90;84.10;;;;;;5054374;28;20326;-32
2022/04/07 10:12:45;;;;;;;5.75;1.20;;;10.00;84.40;;;;;;5053084;28;20021;-32
2022/04/07 10:15:11;;;;;;;4.45;1.10;;;10.10;84.90;;;;;;5054259;28;20021;-30
2022/04/07 10:17:38;;;;;;;6.82;1.48;;;10.20;83.70;;;;;;5052848;28;20019;-32
2022/04/07 10:20:10;;;;;;;6.05;1.33;;;10.30;83.50;;;;;;5054238;28;20028;-33
2022/04/07 10:23:01;;;;;;;5.55;1.45;;;10.40;83.20;;;;;;5054120;28;20025;-34
2022/04/07 10:25:27;;;;;;;3.90;1.00;;;10.50;80.10;;;;;;5054003;28;20035;-31
2022/04/07 10:27:57;;;;;;;9.05;1.58;;;10.50;80.90;;;;;;5054010;28;20026;-31
2022/04/07 10:30:23;;;;;;;5.97;1.20;;;10.60;79.40;;;;;;5054000;28;20067;-33
2022/04/07 10:32:52;;;;;;;6.63;1.38;;;10.50;79.40;;;;;;5054047;28;20042;-32
2022/04/07 10:35:30;;;;;;;7.78;1.58;;;10.50;79.80;;;;;;5053701;28;20057;-32
2022/04/07 10:38:40;;;;;;;5.57;1.38;;;10.50;79.00;;;;;;5054003;28;20029;-30
2022/04/07 10:41:06;;;;;;;5.68;1.20;;;10.50;77.80;;;;;;5048417;28;20072;-31
2022/04/07 10:43:37;;;;;;;5.25;1.70;;;10.60;76.60;;;;;;5053497;28;20057;-31
2022/04/07 10:46:06;;;;;;;6.32;1.70;;;10.60;75.40;;;;;;5053772;28;20022;-30
2022/04/07 10:48:36;;;;;;;3.90;1.58;;;10.70;76.60;;;;;;5053750;28;20075;-31
2022/04/07 10:51:03;;;;;;;6.82;1.70;;;10.80;74.00;;;;;;5053523;28;20021;-31
2022/04/07 10:53:39;;;;;;;4.88;1.45;;;10.90;75.00;;;;;;5053538;28;20025;-31
2022/04/07 10:56:21;;;;;;;9.02;1.65;;;10.90;73.20;;;;;;5053736;28;20054;-31
2022/04/07 10:58:55;;;;;;;7.68;1.60;;;10.90;73.80;;;;;;5053237;28;20056;-30
2022/04/07 11:01:32;;;;;;;9.02;1.98;;;11.00;74.70;;;;;;5053386;28;20478;-33
2022/04/07 11:04:16;;;;;;;7.43;1.60;;;11.00;74.40;;;;;;5053269;28;20477;-30
2022/04/07 11:07:24;;;;;;;6.93;2.08;;;11.00;73.50;;;;;;5053254;28;20033;-30
2022/04/07 11:09:58;;;;;;;9.75;2.28;;;10.90;72.70;;;;;;5053132;28;20504;-31
2022/04/07 11:12:34;;;;;;;11.05;2.55;;;10.70;73.30;;;;;;5053366;28;20409;-32
2022/04/07 11:15:02;;;;;;;9.02;2.17;;;10.70;72.50;;;;;;5053393;28;20021;-31
2022/04/07 11:17:31;;;;;;;15.20;2.38;;;10.60;72.90;;;;;;5052947;28;20032;-34
2022/04/07 11:20:19;;;;;;;12.73;2.10;;;10.60;70.20;;;;;;5053055;28;20025;-31
2022/04/07 11:22:47;;;;;;;15.48;2.75;;;10.50;70.60;;;;;;5052867;28;20036;-31
2022/04/07 11:25:30;;;;;;;9.52;2.10;;;10.40;70.60;;;;;;5052617;28;20024;-31
2022/04/07 11:28:27;;;;;;;13.73;2.30;;;10.30;71.00;;;;;;5051575;28;20088;-30
2022/04/07 11:31:00;;;;;;;14.40;2.65;;;10.30;70.80;;;;;;5043540;28;20124;-30
2022/04/07 11:33:28;;;;;;;12.20;2.78;;;10.30;71.20;;;;;;5052702;28;20028;-30
2022/04/07 11:36:00;;;;;;;13.00;2.58;;;10.20;71.70;;;;;;5052703;28;20029;-31
2022/04/07 11:38:33;;;;;;;12.77;2.30;;;10.20;72.30;;;;;;5052827;28;20033;-30
2022/04/07 11:41:02;;;;;;;11.02;2.75;;;10.20;72.10;;;;;;5053018;28;20021;-34
2022/04/07 11:43:28;;;;;;;11.43;2.42;;;10.30;71.30;;;;;;5052699;28;20141;-31
2022/04/07 11:45:55;;;;;;;12.52;2.97;;;10.30;71.20;;;;;;5052624;28;20056;-30
2022/04/07 11:48:21;;;;;;;13.20;2.58;;;10.30;71.20;;;;;;5052661;28;20044;-30
2022/04/07 11:50:47;;;;;;;11.70;2.30;;;10.40;71.60;;;;;;5052660;28;20040;-33
2022/04/07 11:53:12;;;;;;;9.38;2.20;;;10.40;71.40;;;;;;5052640;28;20428;-31
2022/04/07 11:55:38;;;;;;;8.95;1.95;;;10.50;70.60;;;;;;5052506;28;20025;-32
2022/04/07 11:58:03;;;;;;;6.47;2.05;;;10.50;71.20;;;;;;5052675;28;20025;-32
2022/04/07 12:00:32;;;;;;;8.50;2.10;;;10.60;70.20;;;;;;5052423;28;20049;-31
2022/04/07 12:02:59;;;;;;;15.45;2.92;;;10.60;69.40;;;;;;5052645;28;20075;-30
2022/04/07 12:05:24;;;;;;;12.05;2.25;;;10.60;69.10;;;;;;5052494;28;20021;-31
2022/04/07 12:07:50;;;;;;;11.18;2.47;;;10.60;69.20;;;;;;5052460;28;20454;-33
2022/04/07 12:10:16;;;;;;;9.80;2.35;;;10.60;69.10;;;;;;5052571;28;20025;-32
2022/04/07 12:12:42;;;;;;;8.30;1.88;;;10.60;69.50;;;;;;5052439;28;20381;-33
2022/04/07 12:15:09;;;;;;;12.80;2.50;;;10.70;69.60;;;;;;5052427;28;20045;-33
2022/04/07 12:17:35;;;;;;;9.38;2.13;;;10.80;69.50;;;;;;5052395;28;20477;-31
2022/04/07 12:20:01;;;;;;;14.50;2.63;;;10.90;68.90;;;;;;5053226;28;20032;-32
2022/04/07 12:22:31;;;;;;;8.38;2.45;;;10.90;68.80;;;;;;5056432;28;20452;-43
2022/04/07 12:24:59;;;;;;;13.63;2.80;;;11.00;68.20;;;;;;5056414;28;20017;-45
2022/04/07 12:27:31;;;;;;;9.98;1.92;;;11.00;68.20;;;;;;5056347;28;20029;-45
2022/04/07 12:29:58;;;;;;;9.98;2.30;;;11.00;68.30;;;;;;5056278;28;20503;-45
2022/04/07 12:32:24;;;;;;;11.85;2.60;;;11.00;68.10;;;;;;5056424;28;20024;-45
2022/04/07 12:34:49;;;;;;;9.93;1.95;;;11.00;68.80;;;;;;5054820;28;20473;-45
2022/04/07 12:37:39;;;;;;;12.80;2.20;;;10.90;68.40;;;;;;5054953;28;20087;-45
2022/04/07 12:40:06;;;;;;;9.10;2.50;;;10.90;67.80;;;;;;5056090;28;20044;-45
2022/04/07 12:42:32;;;;;;;10.18;2.75;;;10.90;68.50;;;;;;5056284;28;20479;-45
2022/04/07 12:45:08;;;;;;;10.68;2.33;;;11.00;67.30;;;;;;5055947;28;20104;-45
2022/04/07 12:47:33;;;;;;;12.93;2.47;;;11.00;67.30;;;;;;5055855;28;20390;-45
2022/04/07 12:50:02;;;;;;;13.60;2.70;;;11.00;67.40;;;;;;5056023;28;20054;-30